sensor_id;sensor_type;location;lat;lon;timestamp;temperature;humidity
79750;SHT31;69233;51.968;5.658;2024-01-30T00:00:39;11.4;66.2
79750;SHT31;69233;51.968;5.658;2024-01-30T00:03:08;11.4;66.0
79750;SHT31;69233;51.968;5.658;2024-01-30T00:05:36;11.4;65.2
79750;SHT31;69233;51.968;5.658;2024-01-30T00:08:06;11.4;66.3
79750;SHT31;69233;51.968;5.658;2024-01-30T00:10:34;11.4;66.5
79750;SHT31;69233;51.968;5.658;2024-01-30T00:13:03;11.3;66.1
79750;SHT31;69233;51.968;5.658;2024-01-30T00:15:32;11.3;65.9
79750;SHT31;69233;51.968;5.658;2024-01-30T00:18:01;11.3;66.5
79750;SHT31;69233;51.968;5.658;2024-01-30T00:20:29;11.3;65.7
79750;SHT31;69233;51.968;5.658;2024-01-30T00:23:00;11.3;66.5
79750;SHT31;69233;51.968;5.658;2024-01-30T00:25:29;11.3;66.8
79750;SHT31;69233;51.968;5.658;2024-01-30T00:27:59;11.3;66.6
79750;SHT31;69233;51.968;5.658;2024-01-30T00:30:28;11.2;66.8
79750;SHT31;69233;51.968;5.658;2024-01-30T00:32:57;11.2;66.2
79750;SHT31;69233;51.968;5.658;2024-01-30T00:35:25;11.2;66.5
79750;SHT31;69233;51.968;5.658;2024-01-30T00:37:55;11.2;66.9
79750;SHT31;69233;51.968;5.658;2024-01-30T00:40:24;11.2;66.6
79750;SHT31;69233;51.968;5.658;2024-01-30T00:42:55;11.2;66.5
79750;SHT31;69233;51.968;5.658;2024-01-30T00:45:25;11.2;66.9
79750;SHT31;69233;51.968;5.658;2024-01-30T00:47:54;11.2;66.8
79750;SHT31;69233;51.968;5.658;2024-01-30T00:50:23;11.1;66.1
79750;SHT31;69233;51.968;5.658;2024-01-30T00:52:51;11.1;66.7
79750;SHT31;69233;51.968;5.658;2024-01-30T00:55:20;11.1;66.5
79750;SHT31;69233;51.968;5.658;2024-01-30T00:57:49;11.1;66.9
79750;SHT31;69233;51.968;5.658;2024-01-30T01:00:20;11.1;66.8
79750;SHT31;69233;51.968;5.658;2024-01-30T01:02:54;11.1;67.0
79750;SHT31;69233;51.968;5.658;2024-01-30T01:05:22;11.1;67.0
79750;SHT31;69233;51.968;5.658;2024-01-30T01:07:51;11.1;67.0
79750;SHT31;69233;51.968;5.658;2024-01-30T01:10:20;11.0;66.8
79750;SHT31;69233;51.968;5.658;2024-01-30T01:12:49;11.0;67.1
79750;SHT31;69233;51.968;5.658;2024-01-30T01:15:18;11.0;67.1
79750;SHT31;69233;51.968;5.658;2024-01-30T01:17:46;11.0;67.1
79750;SHT31;69233;51.968;5.658;2024-01-30T01:20:15;11.0;67.1
79750;SHT31;69233;51.968;5.658;2024-01-30T01:22:44;11.0;67.2
79750;SHT31;69233;51.968;5.658;2024-01-30T01:25:13;11.0;67.0
79750;SHT31;69233;51.968;5.658;2024-01-30T01:27:41;11.0;67.2
79750;SHT31;69233;51.968;5.658;2024-01-30T01:30:15;10.9;67.0
79750;SHT31;69233;51.968;5.658;2024-01-30T01:32:48;10.9;66.9
79750;SHT31;69233;51.968;5.658;2024-01-30T01:35:21;10.9;66.7
79750;SHT31;69233;51.968;5.658;2024-01-30T01:37:51;10.9;66.7
79750;SHT31;69233;51.968;5.658;2024-01-30T01:40:22;10.9;66.5
79750;SHT31;69233;51.968;5.658;2024-01-30T01:42:52;10.9;66.7
79750;SHT31;69233;51.968;5.658;2024-01-30T01:45:21;10.9;66.6
79750;SHT31;69233;51.968;5.658;2024-01-30T01:47:51;10.9;66.4
79750;SHT31;69233;51.968;5.658;2024-01-30T01:50:21;10.9;66.7
79750;SHT31;69233;51.968;5.658;2024-01-30T01:52:53;10.8;66.7
79750;SHT31;69233;51.968;5.658;2024-01-30T01:55:23;10.8;66.9
79750;SHT31;69233;51.968;5.658;2024-01-30T01:57:53;10.8;66.9
79750;SHT31;69233;51.968;5.658;2024-01-30T02:00:23;10.8;66.9
79750;SHT31;69233;51.968;5.658;2024-01-30T02:02:54;10.8;66.8
79750;SHT31;69233;51.968;5.658;2024-01-30T02:05:23;10.7;66.9
79750;SHT31;69233;51.968;5.658;2024-01-30T02:07:52;10.7;66.9
79750;SHT31;69233;51.968;5.658;2024-01-30T02:10:21;10.7;66.8
79750;SHT31;69233;51.968;5.658;2024-01-30T02:12:50;10.7;66.8
79750;SHT31;69233;51.968;5.658;2024-01-30T02:15:21;10.7;67.0
79750;SHT31;69233;51.968;5.658;2024-01-30T02:17:50;10.7;66.9
79750;SHT31;69233;51.968;5.658;2024-01-30T02:20:19;10.6;67.1
79750;SHT31;69233;51.968;5.658;2024-01-30T02:22:48;10.6;67.1
79750;SHT31;69233;51.968;5.658;2024-01-30T02:25:19;10.6;66.9
79750;SHT31;69233;51.968;5.658;2024-01-30T02:27:49;10.6;67.0
79750;SHT31;69233;51.968;5.658;2024-01-30T02:30:17;10.6;67.1
79750;SHT31;69233;51.968;5.658;2024-01-30T02:32:46;10.6;67.2
79750;SHT31;69233;51.968;5.658;2024-01-30T02:35:14;10.6;67.1
79750;SHT31;69233;51.968;5.658;2024-01-30T02:37:43;10.6;67.2
79750;SHT31;69233;51.968;5.658;2024-01-30T02:40:12;10.5;67.1
79750;SHT31;69233;51.968;5.658;2024-01-30T02:42:41;10.5;67.2
79750;SHT31;69233;51.968;5.658;2024-01-30T02:45:11;10.5;67.0
79750;SHT31;69233;51.968;5.658;2024-01-30T02:47:40;10.5;67.1
79750;SHT31;69233;51.968;5.658;2024-01-30T02:50:10;10.5;67.2
79750;SHT31;69233;51.968;5.658;2024-01-30T02:52:38;10.5;67.3
79750;SHT31;69233;51.968;5.658;2024-01-30T02:55:07;10.5;67.3
79750;SHT31;69233;51.968;5.658;2024-01-30T02:57:36;10.5;67.1
79750;SHT31;69233;51.968;5.658;2024-01-30T03:00:05;10.5;66.9
79750;SHT31;69233;51.968;5.658;2024-01-30T03:02:36;10.5;66.7
79750;SHT31;69233;51.968;5.658;2024-01-30T03:05:06;10.5;66.8
79750;SHT31;69233;51.968;5.658;2024-01-30T03:07:35;10.5;66.6
79750;SHT31;69233;51.968;5.658;2024-01-30T03:10:03;10.5;66.7
79750;SHT31;69233;51.968;5.658;2024-01-30T03:12:32;10.5;66.7
79750;SHT31;69233;51.968;5.658;2024-01-30T03:15:01;10.5;66.7
79750;SHT31;69233;51.968;5.658;2024-01-30T03:17:30;10.5;66.7
79750;SHT31;69233;51.968;5.658;2024-01-30T03:19:59;10.5;66.3
79750;SHT31;69233;51.968;5.658;2024-01-30T03:22:27;10.5;66.3
79750;SHT31;69233;51.968;5.658;2024-01-30T03:24:56;10.5;66.7
79750;SHT31;69233;51.968;5.658;2024-01-30T03:27:24;10.5;66.9
79750;SHT31;69233;51.968;5.658;2024-01-30T03:29:53;10.5;66.6
79750;SHT31;69233;51.968;5.658;2024-01-30T03:32:21;10.5;66.2
79750;SHT31;69233;51.968;5.658;2024-01-30T03:34:50;10.6;65.6
79750;SHT31;69233;51.968;5.658;2024-01-30T03:37:19;10.6;65.4
79750;SHT31;69233;51.968;5.658;2024-01-30T03:39:47;10.6;66.4
79750;SHT31;69233;51.968;5.658;2024-01-30T03:42:16;10.6;66.5
79750;SHT31;69233;51.968;5.658;2024-01-30T03:44:46;10.6;66.6
79750;SHT31;69233;51.968;5.658;2024-01-30T03:47:18;10.6;66.7
79750;SHT31;69233;51.968;5.658;2024-01-30T03:49:47;10.6;66.6
79750;SHT31;69233;51.968;5.658;2024-01-30T03:52:15;10.6;66.9
79750;SHT31;69233;51.968;5.658;2024-01-30T03:54:44;10.6;66.8
79750;SHT31;69233;51.968;5.658;2024-01-30T03:57:13;10.6;66.8
79750;SHT31;69233;51.968;5.658;2024-01-30T03:59:43;10.6;66.6
79750;SHT31;69233;51.968;5.658;2024-01-30T04:02:12;10.6;66.7
79750;SHT31;69233;51.968;5.658;2024-01-30T04:04:40;10.6;66.6
79750;SHT31;69233;51.968;5.658;2024-01-30T04:07:09;10.6;66.6
79750;SHT31;69233;51.968;5.658;2024-01-30T04:09:38;10.7;66.5
79750;SHT31;69233;51.968;5.658;2024-01-30T04:12:07;10.7;66.4
79750;SHT31;69233;51.968;5.658;2024-01-30T04:14:38;10.7;66.3
79750;SHT31;69233;51.968;5.658;2024-01-30T04:17:07;10.7;66.2
79750;SHT31;69233;51.968;5.658;2024-01-30T04:19:39;10.7;66.3
79750;SHT31;69233;51.968;5.658;2024-01-30T04:22:08;10.7;66.4
79750;SHT31;69233;51.968;5.658;2024-01-30T04:24:37;10.7;66.3
79750;SHT31;69233;51.968;5.658;2024-01-30T04:27:06;10.7;66.4
79750;SHT31;69233;51.968;5.658;2024-01-30T04:29:34;10.7;66.2
79750;SHT31;69233;51.968;5.658;2024-01-30T04:32:03;10.7;66.1
79750;SHT31;69233;51.968;5.658;2024-01-30T04:34:32;10.7;66.1
79750;SHT31;69233;51.968;5.658;2024-01-30T04:37:01;10.8;66.1
79750;SHT31;69233;51.968;5.658;2024-01-30T04:39:29;10.8;65.9
79750;SHT31;69233;51.968;5.658;2024-01-30T04:41:58;10.8;65.9
79750;SHT31;69233;51.968;5.658;2024-01-30T04:44:26;10.8;65.9
79750;SHT31;69233;51.968;5.658;2024-01-30T04:46:55;10.8;65.8
79750;SHT31;69233;51.968;5.658;2024-01-30T04:49:25;10.8;66.1
79750;SHT31;69233;51.968;5.658;2024-01-30T04:51:54;10.8;66.2
79750;SHT31;69233;51.968;5.658;2024-01-30T04:54:22;10.8;66.3
79750;SHT31;69233;51.968;5.658;2024-01-30T04:56:51;10.8;66.3
79750;SHT31;69233;51.968;5.658;2024-01-30T04:59:20;10.8;66.3
79750;SHT31;69233;51.968;5.658;2024-01-30T05:01:48;10.8;66.4
79750;SHT31;69233;51.968;5.658;2024-01-30T05:04:17;10.8;66.5
79750;SHT31;69233;51.968;5.658;2024-01-30T05:06:46;10.8;66.6
79750;SHT31;69233;51.968;5.658;2024-01-30T05:09:14;10.8;66.5
79750;SHT31;69233;51.968;5.658;2024-01-30T05:11:43;10.9;66.5
79750;SHT31;69233;51.968;5.658;2024-01-30T05:14:12;10.9;66.6
79750;SHT31;69233;51.968;5.658;2024-01-30T05:16:41;10.9;66.5
79750;SHT31;69233;51.968;5.658;2024-01-30T05:19:13;10.9;66.5
79750;SHT31;69233;51.968;5.658;2024-01-30T05:21:42;10.9;66.6
79750;SHT31;69233;51.968;5.658;2024-01-30T05:24:11;10.9;66.6
79750;SHT31;69233;51.968;5.658;2024-01-30T05:26:39;10.9;66.6
79750;SHT31;69233;51.968;5.658;2024-01-30T05:29:08;10.9;66.6
79750;SHT31;69233;51.968;5.658;2024-01-30T05:31:37;10.9;66.6
79750;SHT31;69233;51.968;5.658;2024-01-30T05:34:05;10.9;66.5
79750;SHT31;69233;51.968;5.658;2024-01-30T05:36:35;11.0;66.3
79750;SHT31;69233;51.968;5.658;2024-01-30T05:39:04;11.0;66.4
79750;SHT31;69233;51.968;5.658;2024-01-30T05:41:33;11.0;66.5
79750;SHT31;69233;51.968;5.658;2024-01-30T05:44:02;11.0;66.5
79750;SHT31;69233;51.968;5.658;2024-01-30T05:46:31;11.0;66.4
79750;SHT31;69233;51.968;5.658;2024-01-30T05:49:00;11.0;66.5
79750;SHT31;69233;51.968;5.658;2024-01-30T05:51:28;11.0;66.6
79750;SHT31;69233;51.968;5.658;2024-01-30T05:53:57;11.0;66.7
79750;SHT31;69233;51.968;5.658;2024-01-30T05:56:26;11.0;66.7
79750;SHT31;69233;51.968;5.658;2024-01-30T05:58:56;11.0;66.7
79750;SHT31;69233;51.968;5.658;2024-01-30T06:01:24;11.1;66.8
79750;SHT31;69233;51.968;5.658;2024-01-30T06:03:53;11.1;66.8
79750;SHT31;69233;51.968;5.658;2024-01-30T06:06:21;11.1;66.8
79750;SHT31;69233;51.968;5.658;2024-01-30T06:08:50;11.1;66.8
79750;SHT31;69233;51.968;5.658;2024-01-30T06:11:21;11.1;66.8
79750;SHT31;69233;51.968;5.658;2024-01-30T06:13:50;11.1;66.9
79750;SHT31;69233;51.968;5.658;2024-01-30T06:16:18;11.1;66.9
79750;SHT31;69233;51.968;5.658;2024-01-30T06:18:48;11.2;66.8
79750;SHT31;69233;51.968;5.658;2024-01-30T06:21:17;11.2;66.8
79750;SHT31;69233;51.968;5.658;2024-01-30T06:23:46;11.2;66.8
79750;SHT31;69233;51.968;5.658;2024-01-30T06:26:16;11.2;66.8
79750;SHT31;69233;51.968;5.658;2024-01-30T06:28:44;11.2;66.7
79750;SHT31;69233;51.968;5.658;2024-01-30T06:31:13;11.3;66.7
79750;SHT31;69233;51.968;5.658;2024-01-30T06:33:42;11.3;66.7
79750;SHT31;69233;51.968;5.658;2024-01-30T06:36:12;11.3;66.6
79750;SHT31;69233;51.968;5.658;2024-01-30T06:38:41;11.3;66.5
79750;SHT31;69233;51.968;5.658;2024-01-30T06:41:10;11.3;66.4
79750;SHT31;69233;51.968;5.658;2024-01-30T06:43:39;11.4;66.4
79750;SHT31;69233;51.968;5.658;2024-01-30T06:46:07;11.4;66.4
79750;SHT31;69233;51.968;5.658;2024-01-30T06:48:36;11.4;66.5
79750;SHT31;69233;51.968;5.658;2024-01-30T06:51:06;11.4;66.4
79750;SHT31;69233;51.968;5.658;2024-01-30T06:53:35;11.4;66.3
79750;SHT31;69233;51.968;5.658;2024-01-30T06:56:04;11.4;66.3
79750;SHT31;69233;51.968;5.658;2024-01-30T06:58:33;11.4;66.3
79750;SHT31;69233;51.968;5.658;2024-01-30T07:01:02;11.5;66.3
79750;SHT31;69233;51.968;5.658;2024-01-30T07:03:30;11.5;66.3
79750;SHT31;69233;51.968;5.658;2024-01-30T07:05:59;11.5;66.2
79750;SHT31;69233;51.968;5.658;2024-01-30T07:08:27;11.5;66.3
79750;SHT31;69233;51.968;5.658;2024-01-30T07:10:56;11.5;66.2
79750;SHT31;69233;51.968;5.658;2024-01-30T07:13:25;11.5;66.1
79750;SHT31;69233;51.968;5.658;2024-01-30T07:15:54;11.5;66.2
79750;SHT31;69233;51.968;5.658;2024-01-30T07:18:23;11.5;66.1
79750;SHT31;69233;51.968;5.658;2024-01-30T07:20:52;11.5;66.2
79750;SHT31;69233;51.968;5.658;2024-01-30T07:23:20;11.5;66.2
79750;SHT31;69233;51.968;5.658;2024-01-30T07:25:49;11.5;66.3
79750;SHT31;69233;51.968;5.658;2024-01-30T07:28:19;11.5;66.3
79750;SHT31;69233;51.968;5.658;2024-01-30T07:30:50;11.5;66.4
79750;SHT31;69233;51.968;5.658;2024-01-30T07:33:19;11.6;66.3
79750;SHT31;69233;51.968;5.658;2024-01-30T07:35:47;11.6;66.4
79750;SHT31;69233;51.968;5.658;2024-01-30T07:38:16;11.6;66.4
79750;SHT31;69233;51.968;5.658;2024-01-30T07:40:45;11.6;66.5
79750;SHT31;69233;51.968;5.658;2024-01-30T07:43:13;11.6;66.7
79750;SHT31;69233;51.968;5.658;2024-01-30T07:45:42;11.6;66.6
79750;SHT31;69233;51.968;5.658;2024-01-30T07:48:11;11.6;66.7
79750;SHT31;69233;51.968;5.658;2024-01-30T07:50:40;11.6;66.9
79750;SHT31;69233;51.968;5.658;2024-01-30T07:53:09;11.6;66.9
79750;SHT31;69233;51.968;5.658;2024-01-30T07:55:37;11.6;67.0
79750;SHT31;69233;51.968;5.658;2024-01-30T07:58:06;11.6;67.1
79750;SHT31;69233;51.968;5.658;2024-01-30T08:00:35;11.6;67.2
79750;SHT31;69233;51.968;5.658;2024-01-30T08:03:04;11.7;67.2
79750;SHT31;69233;51.968;5.658;2024-01-30T08:05:32;11.7;67.3
79750;SHT31;69233;51.968;5.658;2024-01-30T08:08:01;11.7;67.2
79750;SHT31;69233;51.968;5.658;2024-01-30T08:10:30;11.8;67.3
79750;SHT31;69233;51.968;5.658;2024-01-30T08:12:58;11.8;67.2
79750;SHT31;69233;51.968;5.658;2024-01-30T08:15:27;11.8;67.4
79750;SHT31;69233;51.968;5.658;2024-01-30T08:17:56;11.9;67.6
79750;SHT31;69233;51.968;5.658;2024-01-30T08:20:25;11.9;67.5
79750;SHT31;69233;51.968;5.658;2024-01-30T08:22:54;11.9;67.5
79750;SHT31;69233;51.968;5.658;2024-01-30T08:25:22;12.0;67.6
79750;SHT31;69233;51.968;5.658;2024-01-30T08:27:54;12.0;67.5
79750;SHT31;69233;51.968;5.658;2024-01-30T08:30:23;12.1;67.7
79750;SHT31;69233;51.968;5.658;2024-01-30T08:32:52;12.1;67.5
79750;SHT31;69233;51.968;5.658;2024-01-30T08:35:20;12.1;67.7
79750;SHT31;69233;51.968;5.658;2024-01-30T08:37:49;12.2;67.6
79750;SHT31;69233;51.968;5.658;2024-01-30T08:40:18;12.2;67.8
79750;SHT31;69233;51.968;5.658;2024-01-30T08:42:46;12.3;67.7
79750;SHT31;69233;51.968;5.658;2024-01-30T08:45:15;12.3;67.6
79750;SHT31;69233;51.968;5.658;2024-01-30T08:47:43;12.3;67.7
79750;SHT31;69233;51.968;5.658;2024-01-30T08:50:12;12.4;67.5
79750;SHT31;69233;51.968;5.658;2024-01-30T08:52:40;12.4;67.7
79750;SHT31;69233;51.968;5.658;2024-01-30T08:55:09;12.5;67.6
79750;SHT31;69233;51.968;5.658;2024-01-30T08:57:38;12.5;67.4
79750;SHT31;69233;51.968;5.658;2024-01-30T09:00:07;12.6;67.4
79750;SHT31;69233;51.968;5.658;2024-01-30T09:02:36;12.6;67.3
79750;SHT31;69233;51.968;5.658;2024-01-30T09:05:05;12.6;67.2
79750;SHT31;69233;51.968;5.658;2024-01-30T09:07:34;12.7;67.0
79750;SHT31;69233;51.968;5.658;2024-01-30T09:10:03;12.7;67.4
79750;SHT31;69233;51.968;5.658;2024-01-30T09:12:32;12.7;67.4
79750;SHT31;69233;51.968;5.658;2024-01-30T09:15:01;12.8;67.3
79750;SHT31;69233;51.968;5.658;2024-01-30T09:17:29;12.8;67.1
79750;SHT31;69233;51.968;5.658;2024-01-30T09:19:59;12.9;67.1
79750;SHT31;69233;51.968;5.658;2024-01-30T09:22:28;12.9;66.9
79750;SHT31;69233;51.968;5.658;2024-01-30T09:24:58;12.9;67.2
79750;SHT31;69233;51.968;5.658;2024-01-30T09:27:26;13.0;66.9
79750;SHT31;69233;51.968;5.658;2024-01-30T09:29:55;13.0;66.6
79750;SHT31;69233;51.968;5.658;2024-01-30T09:32:24;13.0;66.8
79750;SHT31;69233;51.968;5.658;2024-01-30T09:34:52;13.1;66.5
79750;SHT31;69233;51.968;5.658;2024-01-30T09:37:21;13.1;66.6
79750;SHT31;69233;51.968;5.658;2024-01-30T09:39:50;13.1;66.7
79750;SHT31;69233;51.968;5.658;2024-01-30T09:42:30;13.1;66.9
79750;SHT31;69233;51.968;5.658;2024-01-30T09:45:02;13.2;67.1
79750;SHT31;69233;51.968;5.658;2024-01-30T09:47:40;13.2;66.8
79750;SHT31;69233;51.968;5.658;2024-01-30T09:50:12;13.2;67.0
79750;SHT31;69233;51.968;5.658;2024-01-30T09:52:42;13.3;67.0
79750;SHT31;69233;51.968;5.658;2024-01-30T09:55:12;13.3;66.9
79750;SHT31;69233;51.968;5.658;2024-01-30T09:57:42;13.4;66.7
79750;SHT31;69233;51.968;5.658;2024-01-30T10:00:14;13.4;66.9
79750;SHT31;69233;51.968;5.658;2024-01-30T10:02:43;13.4;66.4
79750;SHT31;69233;51.968;5.658;2024-01-30T10:05:17;13.5;66.3
79750;SHT31;69233;51.968;5.658;2024-01-30T10:07:55;13.5;66.3
79750;SHT31;69233;51.968;5.658;2024-01-30T10:10:26;13.5;66.5
79750;SHT31;69233;51.968;5.658;2024-01-30T10:12:54;13.6;66.5
79750;SHT31;69233;51.968;5.658;2024-01-30T10:15:24;13.6;66.4
79750;SHT31;69233;51.968;5.658;2024-01-30T10:17:56;13.6;66.5
79750;SHT31;69233;51.968;5.658;2024-01-30T10:20:28;13.6;66.6
79750;SHT31;69233;51.968;5.658;2024-01-30T10:22:57;13.7;66.4
79750;SHT31;69233;51.968;5.658;2024-01-30T10:25:26;13.7;66.5
79750;SHT31;69233;51.968;5.658;2024-01-30T10:27:55;13.7;66.4
79750;SHT31;69233;51.968;5.658;2024-01-30T10:30:25;13.7;66.5
79750;SHT31;69233;51.968;5.658;2024-01-30T10:32:56;13.8;66.4
79750;SHT31;69233;51.968;5.658;2024-01-30T10:35:25;13.8;66.0
79750;SHT31;69233;51.968;5.658;2024-01-30T10:37:57;13.8;66.0
79750;SHT31;69233;51.968;5.658;2024-01-30T10:40:28;13.8;66.1
79750;SHT31;69233;51.968;5.658;2024-01-30T10:43:03;13.9;66.1
79750;SHT31;69233;51.968;5.658;2024-01-30T10:45:35;13.9;65.8
79750;SHT31;69233;51.968;5.658;2024-01-30T10:48:09;13.9;65.4
79750;SHT31;69233;51.968;5.658;2024-01-30T10:50:40;14.0;64.8
79750;SHT31;69233;51.968;5.658;2024-01-30T10:53:12;14.0;65.3
79750;SHT31;69233;51.968;5.658;2024-01-30T10:55:41;14.0;65.1
79750;SHT31;69233;51.968;5.658;2024-01-30T10:58:11;14.1;65.5
79750;SHT31;69233;51.968;5.658;2024-01-30T11:00:41;14.1;65.2
79750;SHT31;69233;51.968;5.658;2024-01-30T11:03:11;14.2;65.5
79750;SHT31;69233;51.968;5.658;2024-01-30T11:05:42;14.2;65.3
79750;SHT31;69233;51.968;5.658;2024-01-30T11:08:14;14.3;64.8
79750;SHT31;69233;51.968;5.658;2024-01-30T11:10:49;14.4;64.8
79750;SHT31;69233;51.968;5.658;2024-01-30T11:13:19;14.4;64.2
79750;SHT31;69233;51.968;5.658;2024-01-30T11:15:49;14.5;64.3
79750;SHT31;69233;51.968;5.658;2024-01-30T11:18:25;14.5;63.9
79750;SHT31;69233;51.968;5.658;2024-01-30T11:20:56;14.6;64.2
79750;SHT31;69233;51.968;5.658;2024-01-30T11:23:28;14.6;63.7
79750;SHT31;69233;51.968;5.658;2024-01-30T11:25:57;14.6;63.6
79750;SHT31;69233;51.968;5.658;2024-01-30T11:28:34;14.6;63.8
79750;SHT31;69233;51.968;5.658;2024-01-30T11:31:06;14.7;63.7
79750;SHT31;69233;51.968;5.658;2024-01-30T11:33:36;14.7;63.8
79750;SHT31;69233;51.968;5.658;2024-01-30T11:36:05;14.7;63.8
79750;SHT31;69233;51.968;5.658;2024-01-30T11:38:37;14.7;63.5
79750;SHT31;69233;51.968;5.658;2024-01-30T11:41:06;14.7;63.5
79750;SHT31;69233;51.968;5.658;2024-01-30T11:43:37;14.8;63.0
79750;SHT31;69233;51.968;5.658;2024-01-30T11:46:06;14.8;62.9
79750;SHT31;69233;51.968;5.658;2024-01-30T11:48:36;14.8;62.8
79750;SHT31;69233;51.968;5.658;2024-01-30T11:51:05;14.8;61.7
79750;SHT31;69233;51.968;5.658;2024-01-30T11:53:34;14.9;62.0
79750;SHT31;69233;51.968;5.658;2024-01-30T11:56:03;14.9;61.8
79750;SHT31;69233;51.968;5.658;2024-01-30T11:58:35;14.9;61.7
79750;SHT31;69233;51.968;5.658;2024-01-30T12:01:04;14.9;61.3
79750;SHT31;69233;51.968;5.658;2024-01-30T12:03:32;14.9;60.7
79750;SHT31;69233;51.968;5.658;2024-01-30T12:06:03;14.9;61.2
79750;SHT31;69233;51.968;5.658;2024-01-30T12:08:32;14.9;61.2
79750;SHT31;69233;51.968;5.658;2024-01-30T12:11:06;14.9;60.9
79750;SHT31;69233;51.968;5.658;2024-01-30T12:13:35;14.9;59.7
79750;SHT31;69233;51.968;5.658;2024-01-30T12:16:06;14.9;59.9
79750;SHT31;69233;51.968;5.658;2024-01-30T12:18:35;14.9;59.5
79750;SHT31;69233;51.968;5.658;2024-01-30T12:21:05;14.9;59.8
79750;SHT31;69233;51.968;5.658;2024-01-30T12:23:35;14.9;58.8
79750;SHT31;69233;51.968;5.658;2024-01-30T12:26:04;14.9;58.6
79750;SHT31;69233;51.968;5.658;2024-01-30T12:28:33;14.8;58.0
79750;SHT31;69233;51.968;5.658;2024-01-30T12:31:03;14.8;57.8
79750;SHT31;69233;51.968;5.658;2024-01-30T12:33:32;14.8;57.8
79750;SHT31;69233;51.968;5.658;2024-01-30T12:36:04;14.7;57.6
79750;SHT31;69233;51.968;5.658;2024-01-30T12:38:35;14.6;57.7
79750;SHT31;69233;51.968;5.658;2024-01-30T12:41:07;14.6;57.8
79750;SHT31;69233;51.968;5.658;2024-01-30T12:43:35;14.6;57.3
79750;SHT31;69233;51.968;5.658;2024-01-30T12:46:05;14.5;57.8
79750;SHT31;69233;51.968;5.658;2024-01-30T12:48:34;14.5;58.1
79750;SHT31;69233;51.968;5.658;2024-01-30T12:51:03;14.4;58.5
79750;SHT31;69233;51.968;5.658;2024-01-30T12:53:32;14.4;59.2
79750;SHT31;69233;51.968;5.658;2024-01-30T12:56:01;14.4;58.7
79750;SHT31;69233;51.968;5.658;2024-01-30T12:58:30;14.4;59.5
79750;SHT31;69233;51.968;5.658;2024-01-30T13:00:58;14.4;58.6
79750;SHT31;69233;51.968;5.658;2024-01-30T13:03:29;14.4;58.0
79750;SHT31;69233;51.968;5.658;2024-01-30T13:05:57;14.4;57.6
79750;SHT31;69233;51.968;5.658;2024-01-30T13:08:26;14.4;57.8
79750;SHT31;69233;51.968;5.658;2024-01-30T13:10:55;14.4;57.9
79750;SHT31;69233;51.968;5.658;2024-01-30T13:13:23;14.3;58.5
79750;SHT31;69233;51.968;5.658;2024-01-30T13:15:52;14.3;57.8
79750;SHT31;69233;51.968;5.658;2024-01-30T13:18:21;14.3;58.2
79750;SHT31;69233;51.968;5.658;2024-01-30T13:20:50;14.2;58.2
79750;SHT31;69233;51.968;5.658;2024-01-30T13:23:19;14.2;58.4
79750;SHT31;69233;51.968;5.658;2024-01-30T13:25:47;14.1;58.6
79750;SHT31;69233;51.968;5.658;2024-01-30T13:28:16;14.0;58.8
79750;SHT31;69233;51.968;5.658;2024-01-30T13:30:46;14.0;58.7
79750;SHT31;69233;51.968;5.658;2024-01-30T13:33:15;13.9;58.2
79750;SHT31;69233;51.968;5.658;2024-01-30T13:35:44;13.8;58.2
79750;SHT31;69233;51.968;5.658;2024-01-30T13:38:15;13.7;58.4
79750;SHT31;69233;51.968;5.658;2024-01-30T13:40:43;13.6;58.8
79750;SHT31;69233;51.968;5.658;2024-01-30T13:43:12;13.6;59.0
79750;SHT31;69233;51.968;5.658;2024-01-30T13:45:41;13.5;58.9
79750;SHT31;69233;51.968;5.658;2024-01-30T13:48:10;13.4;59.0
79750;SHT31;69233;51.968;5.658;2024-01-30T13:50:39;13.3;59.6
79750;SHT31;69233;51.968;5.658;2024-01-30T13:53:07;13.2;59.2
79750;SHT31;69233;51.968;5.658;2024-01-30T13:55:38;13.2;59.8
79750;SHT31;69233;51.968;5.658;2024-01-30T13:58:07;13.1;60.0
79750;SHT31;69233;51.968;5.658;2024-01-30T14:00:36;13.1;60.1
79750;SHT31;69233;51.968;5.658;2024-01-30T14:03:05;13.0;60.2
79750;SHT31;69233;51.968;5.658;2024-01-30T14:05:35;13.0;59.8
79750;SHT31;69233;51.968;5.658;2024-01-30T14:08:04;12.9;60.6
79750;SHT31;69233;51.968;5.658;2024-01-30T14:10:34;12.9;61.0
79750;SHT31;69233;51.968;5.658;2024-01-30T14:13:02;12.9;61.0
79750;SHT31;69233;51.968;5.658;2024-01-30T14:15:31;12.9;60.9
79750;SHT31;69233;51.968;5.658;2024-01-30T14:18:00;12.9;61.2
79750;SHT31;69233;51.968;5.658;2024-01-30T14:20:29;12.9;61.5
79750;SHT31;69233;51.968;5.658;2024-01-30T14:22:57;12.9;61.6
79750;SHT31;69233;51.968;5.658;2024-01-30T14:25:26;12.9;61.9
79750;SHT31;69233;51.968;5.658;2024-01-30T14:27:57;12.9;61.5
79750;SHT31;69233;51.968;5.658;2024-01-30T14:30:25;13.0;61.4
79750;SHT31;69233;51.968;5.658;2024-01-30T14:32:54;13.0;61.1
79750;SHT31;69233;51.968;5.658;2024-01-30T14:35:22;13.0;61.2
79750;SHT31;69233;51.968;5.658;2024-01-30T14:37:53;13.0;61.0
79750;SHT31;69233;51.968;5.658;2024-01-30T14:40:23;13.0;61.2
79750;SHT31;69233;51.968;5.658;2024-01-30T14:42:53;13.0;61.8
79750;SHT31;69233;51.968;5.658;2024-01-30T14:45:22;13.0;62.0
79750;SHT31;69233;51.968;5.658;2024-01-30T14:47:51;13.0;62.2
79750;SHT31;69233;51.968;5.658;2024-01-30T14:50:19;12.9;62.7
79750;SHT31;69233;51.968;5.658;2024-01-30T14:52:48;12.9;62.6
79750;SHT31;69233;51.968;5.658;2024-01-30T14:55:17;12.9;62.5
79750;SHT31;69233;51.968;5.658;2024-01-30T14:57:46;12.8;62.8
79750;SHT31;69233;51.968;5.658;2024-01-30T15:00:16;12.8;62.8
79750;SHT31;69233;51.968;5.658;2024-01-30T15:02:45;12.7;62.8
79750;SHT31;69233;51.968;5.658;2024-01-30T15:05:15;12.7;62.7
79750;SHT31;69233;51.968;5.658;2024-01-30T15:07:43;12.7;62.9
79750;SHT31;69233;51.968;5.658;2024-01-30T15:10:13;12.6;63.1
79750;SHT31;69233;51.968;5.658;2024-01-30T15:12:41;12.6;63.2
79750;SHT31;69233;51.968;5.658;2024-01-30T15:15:10;12.6;63.3
79750;SHT31;69233;51.968;5.658;2024-01-30T15:17:39;12.5;63.5
79750;SHT31;69233;51.968;5.658;2024-01-30T15:20:08;12.5;63.8
79750;SHT31;69233;51.968;5.658;2024-01-30T15:22:37;12.5;63.9
79750;SHT31;69233;51.968;5.658;2024-01-30T15:25:07;12.4;63.8
79750;SHT31;69233;51.968;5.658;2024-01-30T15:27:35;12.4;63.9
79750;SHT31;69233;51.968;5.658;2024-01-30T15:30:05;12.4;64.2
79750;SHT31;69233;51.968;5.658;2024-01-30T15:32:34;12.4;64.6
79750;SHT31;69233;51.968;5.658;2024-01-30T15:35:03;12.3;64.8
79750;SHT31;69233;51.968;5.658;2024-01-30T15:37:32;12.3;64.9
79750;SHT31;69233;51.968;5.658;2024-01-30T15:40:01;12.3;65.4
79750;SHT31;69233;51.968;5.658;2024-01-30T15:42:32;12.3;66.0
79750;SHT31;69233;51.968;5.658;2024-01-30T15:45:01;12.2;66.6
79750;SHT31;69233;51.968;5.658;2024-01-30T15:47:30;12.2;67.2
79750;SHT31;69233;51.968;5.658;2024-01-30T15:49:58;12.2;67.3
79750;SHT31;69233;51.968;5.658;2024-01-30T15:52:27;12.1;67.8
79750;SHT31;69233;51.968;5.658;2024-01-30T15:54:56;12.1;67.8
79750;SHT31;69233;51.968;5.658;2024-01-30T15:57:25;12.0;67.9
79750;SHT31;69233;51.968;5.658;2024-01-30T15:59:53;12.0;67.8
79750;SHT31;69233;51.968;5.658;2024-01-30T16:02:22;12.0;67.9
79750;SHT31;69233;51.968;5.658;2024-01-30T16:04:51;11.9;68.2
79750;SHT31;69233;51.968;5.658;2024-01-30T16:07:19;11.9;68.0
79750;SHT31;69233;51.968;5.658;2024-01-30T16:09:48;11.9;67.9
79750;SHT31;69233;51.968;5.658;2024-01-30T16:12:17;11.9;68.1
79750;SHT31;69233;51.968;5.658;2024-01-30T16:14:48;11.8;68.2